createdAt,value
2023-04-20T00:01:26.886Z,38.09
2023-04-20T00:03:53.628Z,38.29
2023-04-20T00:06:22.015Z,38.38
2023-04-20T00:08:49.522Z,36.74
2023-04-20T00:11:16.411Z,38.57
2023-04-20T00:13:43.456Z,37.35
2023-04-20T00:16:10.429Z,39.15
2023-04-20T00:18:37.101Z,38.00
2023-04-20T00:21:04.712Z,37.01
2023-04-20T00:23:31.448Z,36.83
2023-04-20T00:25:58.554Z,37.17
2023-04-20T00:28:25.318Z,36.08
2023-04-20T00:30:52.077Z,37.67
2023-04-20T00:33:19.413Z,36.81
2023-04-20T00:35:46.329Z,35.98
2023-04-20T00:38:13.132Z,39.41
2023-04-20T00:40:39.826Z,38.68
2023-04-20T00:43:14.248Z,38.35
2023-04-20T00:45:41.212Z,38.30
2023-04-20T00:48:09.560Z,40.09
2023-04-20T00:50:37.793Z,42.96
2023-04-20T00:53:11.147Z,44.46
2023-04-20T00:55:39.548Z,42.35
2023-04-20T00:58:06.881Z,39.11
2023-04-20T01:00:34.381Z,38.44
2023-04-20T01:03:01.402Z,39.69
2023-04-20T01:05:28.477Z,39.52
2023-04-20T01:07:55.372Z,39.62
2023-04-20T01:10:22.131Z,39.81
2023-04-20T01:12:48.933Z,39.27
2023-04-20T01:15:15.822Z,39.00
2023-04-20T01:17:43.886Z,38.89
2023-04-20T01:20:15.008Z,38.77
2023-04-20T01:22:46.885Z,42.27
2023-04-20T01:25:14.823Z,41.67
2023-04-20T01:27:41.802Z,43.16
2023-04-20T01:30:09.440Z,41.75
2023-04-20T01:32:37.889Z,42.60
2023-04-20T01:35:06.567Z,41.68
2023-04-20T01:37:33.975Z,41.90
2023-04-20T01:40:04.080Z,44.28
2023-04-20T01:42:30.953Z,42.67
2023-04-20T01:44:57.823Z,42.32
2023-04-20T01:47:24.632Z,41.35
2023-04-20T01:49:51.703Z,43.47
2023-04-20T01:52:19.177Z,44.65
2023-04-20T01:54:49.094Z,41.41
2023-04-20T01:57:15.868Z,43.82
2023-04-20T01:59:42.814Z,40.91
2023-04-20T02:02:09.687Z,42.23
2023-04-20T02:04:37.093Z,42.51
2023-04-20T02:07:04.563Z,44.01
2023-04-20T02:09:31.286Z,44.90
2023-04-20T02:11:58.190Z,43.98
2023-04-20T02:14:24.970Z,42.65
2023-04-20T02:16:53.530Z,44.63
2023-04-20T02:19:21.308Z,43.74
2023-04-20T02:21:48.268Z,41.50
2023-04-20T02:24:15.660Z,44.10
2023-04-20T02:26:42.389Z,43.44
2023-04-20T02:29:09.083Z,44.01
2023-04-20T02:31:36.103Z,45.10
2023-04-20T02:34:03.358Z,42.77
2023-04-20T02:36:33.175Z,41.87
2023-04-20T02:39:00.615Z,41.98
2023-04-20T02:41:27.257Z,44.18
2023-04-20T02:43:54.109Z,42.89
2023-04-20T02:46:21.262Z,43.18
2023-04-20T02:48:48.636Z,45.26
2023-04-20T02:51:15.761Z,44.66
2023-04-20T02:53:44.865Z,43.54
2023-04-20T02:56:27.345Z,43.13
2023-04-20T02:58:56.628Z,41.04
2023-04-20T03:01:43.742Z,43.34
2023-04-20T03:04:22.528Z,44.08
2023-04-20T03:07:05.864Z,44.18
2023-04-20T03:09:37.510Z,42.35
2023-04-20T03:12:19.095Z,43.42
2023-04-20T03:14:58.552Z,42.69
2023-04-20T03:17:37.781Z,45.48
2023-04-20T03:20:05.733Z,44.81
2023-04-20T03:22:32.828Z,41.70
2023-04-20T03:25:01.285Z,46.54
2023-04-20T03:27:51.645Z,43.55
2023-04-20T03:30:19.206Z,45.09
2023-04-20T03:32:50.583Z,45.31
2023-04-20T03:35:17.863Z,45.40
2023-04-20T03:37:44.801Z,45.16
2023-04-20T03:40:12.114Z,46.99
2023-04-20T03:42:38.814Z,45.53
2023-04-20T03:45:06.748Z,47.63
2023-04-20T03:47:33.885Z,46.77
2023-04-20T03:50:00.982Z,43.80
2023-04-20T03:52:27.938Z,44.77
2023-04-20T03:54:56.541Z,44.68
2023-04-20T03:57:23.315Z,44.20
2023-04-20T03:59:50.444Z,47.17
2023-04-20T04:02:22.711Z,44.86
2023-04-20T04:04:50.742Z,47.71
2023-04-20T04:07:17.580Z,47.47
2023-04-20T04:09:44.452Z,46.95
2023-04-20T04:12:12.579Z,46.18
2023-04-20T04:14:39.608Z,46.79
2023-04-20T04:17:08.272Z,46.38
2023-04-20T04:19:38.304Z,47.18
2023-04-20T04:22:05.433Z,46.04
2023-04-20T04:24:38.941Z,43.52
2023-04-20T04:27:08.335Z,45.50
2023-04-20T04:29:41.903Z,45.15
2023-04-20T04:32:14.052Z,45.62
2023-04-20T04:34:44.356Z,45.10
2023-04-20T04:37:12.061Z,46.76
2023-04-20T04:39:43.228Z,46.58
2023-04-20T04:42:17.988Z,46.24
2023-04-20T04:44:46.215Z,45.29
2023-04-20T04:47:19.970Z,47.76
2023-04-20T04:49:46.845Z,49.86
2023-04-20T04:52:13.661Z,49.07
2023-04-20T04:54:40.461Z,48.39
2023-04-20T04:57:07.446Z,45.04
2023-04-20T04:59:34.279Z,47.44
2023-04-20T05:02:01.582Z,46.84
2023-04-20T05:04:28.454Z,43.03
2023-04-20T05:06:55.241Z,43.49
2023-04-20T05:09:22.617Z,44.92
2023-04-20T05:11:49.482Z,46.19
2023-04-20T05:14:16.718Z,46.50
2023-04-20T05:16:43.511Z,44.92
2023-04-20T05:19:10.297Z,46.35
2023-04-20T05:21:39.318Z,48.08
2023-04-20T05:24:06.630Z,44.54
2023-04-20T05:26:33.378Z,46.96
2023-04-20T05:29:00.807Z,45.32
2023-04-20T05:31:27.829Z,48.68
2023-04-20T05:33:54.693Z,47.16
2023-04-20T05:36:21.684Z,45.43
2023-04-20T05:38:48.385Z,45.65
2023-04-20T05:41:15.131Z,45.42
2023-04-20T05:43:41.805Z,45.53
2023-04-20T05:46:08.526Z,46.63
2023-04-20T05:48:35.477Z,45.92
2023-04-20T05:51:02.571Z,47.59
2023-04-20T05:53:29.320Z,47.88
2023-04-20T05:55:56.220Z,46.83
2023-04-20T05:58:23.214Z,43.88
2023-04-20T06:00:49.968Z,48.33
2023-04-20T06:03:17.041Z,44.65
2023-04-20T06:05:44.060Z,46.81
2023-04-20T06:08:10.859Z,44.00
2023-04-20T06:10:38.244Z,43.46
2023-04-20T06:13:05.393Z,41.93
2023-04-20T06:15:32.343Z,47.56
2023-04-20T06:17:59.261Z,46.89
2023-04-20T06:20:26.030Z,48.66
2023-04-20T06:22:53.611Z,46.96
2023-04-20T06:25:20.676Z,47.69
2023-04-20T06:27:48.178Z,48.77
2023-04-20T06:30:16.429Z,46.44
2023-04-20T06:32:43.200Z,47.53
2023-04-20T06:35:10.133Z,46.52
2023-04-20T06:37:37.176Z,49.95
2023-04-20T06:40:08.824Z,47.21
2023-04-20T06:42:37.090Z,43.94
2023-04-20T06:45:05.818Z,45.78
2023-04-20T06:47:33.981Z,48.38
2023-04-20T06:50:02.212Z,49.85
2023-04-20T06:52:30.593Z,48.36
2023-04-20T06:54:58.768Z,48.53
2023-04-20T06:57:25.529Z,49.53
2023-04-20T06:59:52.485Z,46.84
2023-04-20T07:02:19.479Z,48.76
2023-04-20T07:04:46.341Z,47.28
2023-04-20T07:07:13.408Z,43.67
2023-04-20T07:09:40.236Z,43.75
2023-04-20T07:12:07.538Z,45.26
2023-04-20T07:14:34.262Z,44.54
2023-04-20T07:17:01.302Z,45.96
2023-04-20T07:19:28.212Z,45.01
2023-04-20T07:21:55.296Z,45.79
2023-04-20T07:24:22.992Z,48.80
2023-04-20T07:26:49.836Z,49.79
2023-04-20T07:29:16.831Z,45.47
2023-04-20T07:31:43.864Z,45.46
2023-04-20T07:34:11.175Z,44.99
2023-04-20T07:36:39.266Z,47.23
2023-04-20T07:39:06.292Z,48.52
2023-04-20T07:41:33.287Z,46.64
2023-04-20T07:44:00.281Z,45.82
2023-04-20T07:46:28.460Z,47.65
2023-04-20T07:48:55.675Z,45.02
2023-04-20T07:51:22.881Z,45.17
2023-04-20T07:53:49.614Z,45.40
2023-04-20T07:56:16.331Z,43.07
2023-04-20T07:58:43.354Z,46.15
2023-04-20T08:01:11.374Z,43.15
2023-04-20T08:03:38.225Z,43.08
2023-04-20T08:06:05.632Z,41.39
2023-04-20T08:08:32.619Z,45.98
2023-04-20T08:10:59.397Z,43.19
2023-04-20T08:13:27.589Z,45.14
2023-04-20T08:15:54.666Z,46.17
2023-04-20T08:18:21.832Z,45.25
2023-04-20T08:20:48.920Z,46.71
2023-04-20T08:23:15.810Z,46.58
2023-04-20T08:25:42.669Z,44.40
2023-04-20T08:28:12.382Z,46.29
2023-04-20T08:30:46.974Z,43.94
2023-04-20T08:33:13.940Z,44.03
2023-04-20T08:35:41.156Z,42.72
2023-04-20T08:38:08.441Z,45.44
2023-04-20T08:40:37.016Z,45.75
2023-04-20T08:43:04.242Z,41.22
2023-04-20T08:45:31.292Z,43.12
2023-04-20T08:48:10.816Z,43.29
2023-04-20T08:50:41.724Z,43.40
2023-04-20T08:53:09.956Z,41.88
2023-04-20T08:55:37.025Z,42.08
2023-04-20T08:58:04.576Z,40.78
2023-04-20T09:00:31.316Z,43.72
2023-04-20T09:03:01.985Z,44.14
2023-04-20T09:05:30.865Z,46.69
2023-04-20T09:08:00.162Z,44.87
2023-04-20T09:10:40.283Z,43.04
2023-04-20T09:13:07.456Z,43.93
2023-04-20T09:15:34.475Z,41.30
2023-04-20T09:18:14.105Z,40.88
2023-04-20T09:20:41.556Z,42.70
2023-04-20T09:23:19.298Z,43.08
2023-04-20T09:25:50.574Z,43.75
2023-04-20T09:28:18.439Z,43.52
2023-04-20T09:30:47.363Z,42.12
2023-04-20T09:33:14.850Z,40.62
2023-04-20T09:35:45.053Z,41.79
2023-04-20T09:38:15.961Z,41.62
2023-04-20T09:40:42.712Z,42.10
2023-04-20T09:43:19.641Z,41.05
2023-04-20T09:45:46.524Z,41.44
2023-04-20T09:48:19.148Z,42.75
2023-04-20T09:50:49.775Z,42.27
2023-04-20T09:53:18.715Z,44.09
2023-04-20T09:55:48.768Z,40.57
2023-04-20T09:58:18.899Z,41.34
2023-04-20T10:00:45.721Z,41.56
2023-04-20T10:03:18.185Z,40.13
2023-04-20T10:05:45.399Z,43.93
2023-04-20T10:08:12.529Z,42.15
2023-04-20T10:10:47.416Z,39.97
2023-04-20T10:13:15.511Z,42.77
2023-04-20T10:15:42.954Z,40.29
2023-04-20T10:18:27.030Z,40.78
2023-04-20T10:21:06.369Z,44.57
2023-04-20T10:23:33.176Z,41.31
2023-04-20T10:26:01.178Z,39.98
2023-04-20T10:28:41.166Z,40.35
2023-04-20T10:31:13.093Z,39.92
2023-04-20T10:33:50.526Z,39.83
2023-04-20T10:36:32.366Z,43.19
2023-04-20T10:38:59.132Z,41.93
2023-04-20T10:41:26.212Z,41.05
2023-04-20T10:43:53.385Z,42.61
2023-04-20T10:46:22.373Z,40.62
2023-04-20T10:49:01.584Z,42.88
2023-04-20T10:51:28.802Z,39.29
2023-04-20T10:54:07.768Z,38.84
2023-04-20T10:56:49.544Z,39.46
2023-04-20T10:59:18.587Z,40.43
2023-04-20T11:01:46.967Z,41.43
2023-04-20T11:04:16.966Z,40.91
2023-04-20T11:06:48.052Z,40.12
2023-04-20T11:09:19.663Z,40.15
2023-04-20T11:11:47.204Z,37.28
2023-04-20T11:14:14.000Z,40.20
2023-04-20T11:16:52.436Z,40.14
2023-04-20T11:19:25.092Z,41.24
2023-04-20T11:21:51.964Z,40.44
2023-04-20T11:24:20.820Z,42.09
2023-04-20T11:26:53.457Z,38.75
2023-04-20T11:29:56.498Z,41.41
2023-04-20T11:32:23.931Z,41.61
2023-04-20T11:35:05.945Z,40.19
2023-04-20T11:37:45.867Z,40.71
2023-04-20T11:40:13.426Z,40.49
2023-04-20T11:42:40.396Z,39.15
2023-04-20T11:45:08.368Z,41.37
2023-04-20T11:47:36.043Z,46.00
2023-04-20T11:50:02.859Z,41.85
2023-04-20T11:52:29.650Z,41.68
2023-04-20T11:54:56.946Z,44.33
2023-04-20T11:57:25.688Z,42.60
2023-04-20T11:59:52.647Z,43.77
2023-04-20T12:02:19.664Z,41.27
2023-04-20T12:04:47.179Z,41.39
2023-04-20T12:07:14.016Z,42.86
2023-04-20T12:09:42.003Z,43.12
2023-04-20T12:12:09.144Z,40.43
2023-04-20T12:14:36.721Z,41.53
2023-04-20T12:17:05.372Z,41.02
2023-04-20T12:19:32.369Z,40.62
2023-04-20T12:21:59.256Z,38.19
2023-04-20T12:24:27.118Z,42.13
2023-04-20T12:26:54.660Z,38.69
2023-04-20T12:29:21.787Z,37.12
2023-04-20T12:31:48.639Z,37.95
2023-04-20T12:34:16.059Z,39.66
2023-04-20T12:36:43.277Z,40.85
2023-04-20T12:39:12.458Z,41.98
2023-04-20T12:41:41.444Z,40.08
2023-04-20T12:44:09.999Z,43.09
2023-04-20T12:46:38.124Z,40.76
2023-04-20T12:49:05.356Z,40.27
2023-04-20T12:51:32.312Z,39.04
2023-04-20T12:53:59.172Z,39.10
2023-04-20T12:56:26.465Z,40.59
2023-04-20T12:58:53.420Z,40.83
2023-04-20T13:01:20.587Z,40.09
2023-04-20T13:03:47.624Z,41.36
2023-04-20T13:06:14.788Z,40.81
2023-04-20T13:08:41.582Z,39.82
2023-04-20T13:11:16.131Z,36.79
2023-04-20T13:13:42.988Z,41.86
2023-04-20T13:16:10.120Z,40.66
2023-04-20T13:18:38.356Z,40.87
2023-04-20T13:21:05.353Z,40.17
2023-04-20T13:23:32.441Z,41.59
2023-04-20T13:26:01.537Z,42.38
2023-04-20T13:28:28.409Z,40.69
2023-04-20T13:30:57.787Z,41.04
2023-04-20T13:33:25.020Z,41.88
2023-04-20T13:35:52.421Z,41.62
2023-04-20T13:38:19.258Z,42.80
2023-04-20T13:40:47.090Z,41.72
2023-04-20T13:43:14.550Z,44.07
2023-04-20T13:45:41.863Z,43.42
2023-04-20T13:48:08.744Z,42.72
2023-04-20T13:50:35.513Z,40.32
2023-04-20T13:53:03.358Z,39.68
2023-04-20T13:55:31.397Z,37.69
2023-04-20T13:57:58.361Z,39.06
2023-04-20T14:00:26.952Z,41.86
2023-04-20T14:02:53.779Z,41.40
2023-04-20T14:05:20.765Z,42.12
2023-04-20T14:07:47.916Z,44.95
2023-04-20T14:10:15.352Z,43.03
2023-04-20T14:12:42.089Z,38.95
2023-04-20T14:15:09.352Z,40.57
2023-04-20T14:17:36.428Z,40.55
2023-04-20T14:20:04.204Z,40.75
2023-04-20T14:22:36.039Z,39.40
2023-04-20T14:25:06.933Z,40.75
2023-04-20T14:27:34.062Z,42.77
2023-04-20T14:30:00.914Z,41.86
2023-04-20T14:32:28.786Z,43.72
2023-04-20T14:34:55.796Z,39.52
2023-04-20T14:37:25.151Z,42.12
2023-04-20T14:39:52.196Z,40.80
2023-04-20T14:42:19.372Z,38.48
2023-04-20T14:44:47.862Z,43.18
2023-04-20T14:47:15.714Z,39.61
2023-04-20T14:49:44.972Z,40.20
2023-04-20T14:52:12.439Z,40.72
2023-04-20T14:54:39.136Z,40.05
2023-04-20T14:57:06.023Z,39.33
2023-04-20T14:59:33.888Z,39.98
2023-04-20T15:02:03.376Z,40.53
2023-04-20T15:04:30.978Z,39.81
2023-04-20T15:06:58.737Z,41.62
2023-04-20T15:09:26.268Z,36.91
2023-04-20T15:11:53.322Z,40.00
2023-04-20T15:14:20.651Z,39.36
2023-04-20T15:16:47.461Z,38.83
2023-04-20T15:19:14.211Z,40.42
2023-04-20T15:21:42.676Z,39.89
2023-04-20T15:24:10.563Z,39.57
2023-04-20T15:26:38.186Z,38.40
2023-04-20T15:29:04.937Z,36.87
2023-04-20T15:31:31.933Z,39.38
2023-04-20T15:34:00.562Z,39.24
2023-04-20T15:36:28.181Z,40.09
2023-04-20T15:38:57.431Z,39.73
2023-04-20T15:41:24.628Z,37.51
2023-04-20T15:43:51.456Z,38.49
2023-04-20T15:46:18.845Z,37.12
2023-04-20T15:48:45.994Z,37.55
2023-04-20T15:51:13.145Z,39.60
2023-04-20T15:53:39.857Z,41.73
2023-04-20T15:56:06.794Z,39.56
2023-04-20T15:58:33.719Z,37.69
2023-04-20T16:01:01.041Z,35.21
2023-04-20T16:03:28.854Z,38.33
2023-04-20T16:05:56.116Z,36.26
2023-04-20T16:08:23.654Z,39.61
2023-04-20T16:10:50.507Z,39.16
2023-04-20T16:13:17.207Z,37.02
2023-04-20T16:15:45.169Z,38.01
2023-04-20T16:18:12.005Z,36.10
2023-04-20T16:20:41.272Z,35.87
2023-04-20T16:23:08.933Z,37.35
2023-04-20T16:25:38.587Z,36.83
2023-04-20T16:28:05.972Z,36.34
2023-04-20T16:30:37.050Z,36.98
2023-04-20T16:33:04.000Z,36.68
2023-04-20T16:35:31.471Z,38.65
2023-04-20T16:37:58.727Z,38.26
2023-04-20T16:40:28.797Z,39.41
2023-04-20T16:42:55.577Z,41.40
2023-04-20T16:45:22.257Z,39.17
2023-04-20T16:47:49.086Z,38.95
2023-04-20T16:50:19.584Z,41.91
2023-04-20T16:52:47.642Z,37.82
2023-04-20T16:55:15.392Z,39.27
2023-04-20T16:57:42.510Z,37.72
2023-04-20T17:00:10.984Z,37.02
2023-04-20T17:02:38.358Z,38.35
2023-04-20T17:05:06.144Z,39.90
2023-04-20T17:07:33.127Z,39.28
2023-04-20T17:10:00.587Z,39.44
2023-04-20T17:12:27.742Z,39.38
2023-04-20T17:14:55.590Z,39.21
2023-04-20T17:17:22.410Z,40.17
2023-04-20T17:19:49.129Z,40.37
2023-04-20T17:22:15.994Z,40.30
2023-04-20T17:24:42.841Z,40.65
2023-04-20T17:27:09.871Z,39.15
2023-04-20T17:29:38.679Z,39.14
2023-04-20T17:32:06.082Z,40.53
2023-04-20T17:34:33.152Z,40.82
2023-04-20T17:37:00.944Z,40.01
2023-04-20T17:39:27.811Z,40.64
2023-04-20T17:41:55.099Z,39.69
2023-04-20T17:44:21.985Z,43.57
2023-04-20T17:46:51.184Z,44.57
2023-04-20T17:49:18.350Z,39.84
2023-04-20T17:51:46.252Z,41.01
2023-04-20T17:54:13.174Z,40.33
2023-04-20T17:56:40.205Z,42.71
2023-04-20T17:59:06.941Z,39.08
2023-04-20T18:01:36.643Z,41.40
2023-04-20T18:04:04.070Z,42.67
2023-04-20T18:06:31.617Z,41.64
2023-04-20T18:08:58.751Z,41.90
2023-04-20T18:11:26.195Z,40.71
2023-04-20T18:13:53.190Z,44.83
2023-04-20T18:16:20.017Z,43.31
2023-04-20T18:18:47.342Z,41.07
2023-04-20T18:21:15.057Z,43.90
2023-04-20T18:23:41.801Z,40.30
2023-04-20T18:26:11.873Z,42.78
2023-04-20T18:28:38.635Z,41.76
2023-04-20T18:31:05.346Z,40.69
2023-04-20T18:33:32.364Z,40.33
2023-04-20T18:35:59.111Z,40.63
2023-04-20T18:38:26.790Z,42.22
2023-04-20T18:40:53.556Z,40.66
2023-04-20T18:43:20.320Z,44.38
2023-04-20T18:45:47.239Z,41.66
2023-04-20T18:48:14.009Z,43.95
2023-04-20T18:50:40.906Z,42.89
2023-04-20T18:53:07.835Z,41.92
2023-04-20T18:55:34.691Z,42.63
2023-04-20T18:58:02.106Z,41.85
2023-04-20T19:00:29.144Z,40.89
2023-04-20T19:02:56.552Z,42.51
2023-04-20T19:05:23.553Z,42.28
2023-04-20T19:07:50.339Z,41.40
2023-04-20T19:10:17.121Z,45.13
2023-04-20T19:12:44.113Z,41.72
2023-04-20T19:15:11.444Z,41.06
2023-04-20T19:17:38.193Z,40.18
2023-04-20T19:20:05.597Z,41.11
2023-04-20T19:22:32.344Z,41.92
2023-04-20T19:24:59.207Z,41.33
2023-04-20T19:27:26.824Z,41.36
2023-04-20T19:29:53.654Z,43.85
2023-04-20T19:32:20.875Z,45.17
2023-04-20T19:34:48.160Z,42.29
2023-04-20T19:37:16.055Z,42.49
2023-04-20T19:39:42.787Z,42.07
2023-04-20T19:42:09.505Z,43.65
2023-04-20T19:44:36.660Z,42.56
2023-04-20T19:47:04.075Z,41.27
2023-04-20T19:49:31.018Z,45.78
2023-04-20T19:51:57.962Z,42.78
2023-04-20T19:54:24.882Z,41.94
2023-04-20T19:56:51.836Z,44.57
2023-04-20T19:59:19.276Z,43.31
2023-04-20T20:01:48.883Z,45.49
2023-04-20T20:04:17.733Z,42.47
2023-04-20T20:06:48.543Z,44.34
2023-04-20T20:09:16.454Z,42.70
2023-04-20T20:11:48.718Z,43.06
2023-04-20T20:14:17.017Z,41.81
2023-04-20T20:16:44.640Z,40.41
2023-04-20T20:19:11.794Z,42.08
2023-04-20T20:21:38.479Z,41.50
2023-04-20T20:24:05.623Z,40.26
2023-04-20T20:26:32.771Z,43.24
2023-04-20T20:28:59.826Z,41.01
2023-04-20T20:31:27.516Z,42.24
2023-04-20T20:33:54.976Z,39.75
2023-04-20T20:36:22.402Z,40.27
2023-04-20T20:38:49.401Z,39.22
2023-04-20T20:41:17.398Z,40.79
2023-04-20T20:43:46.579Z,39.91
2023-04-20T20:46:13.442Z,41.59
2023-04-20T20:48:40.209Z,39.26
2023-04-20T20:51:07.385Z,39.96
2023-04-20T20:53:34.306Z,40.06
2023-04-20T20:56:03.122Z,41.25
2023-04-20T20:58:30.131Z,40.42
2023-04-20T21:00:57.270Z,39.65
2023-04-20T21:03:24.219Z,39.08
2023-04-20T21:05:51.143Z,38.70
2023-04-20T21:08:18.240Z,39.35
2023-04-20T21:10:45.265Z,39.61
2023-04-20T21:13:12.270Z,40.26
2023-04-20T21:15:39.018Z,40.95
2023-04-20T21:18:06.015Z,39.27
2023-04-20T21:20:33.739Z,40.36
2023-04-20T21:23:00.849Z,39.84
2023-04-20T21:25:27.716Z,39.30
2023-04-20T21:27:54.445Z,39.69
2023-04-20T21:30:21.259Z,38.30
2023-04-20T21:32:48.481Z,38.88
2023-04-20T21:35:15.197Z,40.87
2023-04-20T21:37:43.805Z,39.75
2023-04-20T21:40:11.710Z,40.23
2023-04-20T21:42:38.432Z,38.50
2023-04-20T21:45:05.551Z,40.65
2023-04-20T21:47:32.307Z,40.95
2023-04-20T21:49:59.605Z,38.86
2023-04-20T21:52:26.539Z,42.03
2023-04-20T21:54:53.264Z,41.11
2023-04-20T21:57:20.107Z,38.41
2023-04-20T21:59:47.404Z,39.34
2023-04-20T22:02:14.253Z,42.21
2023-04-20T22:04:41.318Z,39.05
2023-04-20T22:07:09.927Z,39.95
2023-04-20T22:09:37.290Z,42.16
2023-04-20T22:12:05.322Z,40.95
2023-04-20T22:14:32.350Z,40.08
2023-04-20T22:16:59.625Z,38.80
2023-04-20T22:19:26.894Z,41.07
2023-04-20T22:21:53.765Z,39.67
2023-04-20T22:24:20.527Z,45.74
2023-04-20T22:26:49.114Z,40.73
2023-04-20T22:29:16.302Z,40.62
2023-04-20T22:31:43.472Z,38.69
2023-04-20T22:34:10.313Z,38.28
2023-04-20T22:36:36.992Z,38.93
2023-04-20T22:39:04.489Z,39.86
2023-04-20T22:41:31.345Z,40.34
2023-04-20T22:43:58.263Z,39.37
2023-04-20T22:46:25.032Z,38.42
2023-04-20T22:48:52.498Z,41.58
2023-04-20T22:51:19.268Z,40.27
2023-04-20T22:53:46.209Z,39.44
2023-04-20T22:56:13.549Z,39.06
2023-04-20T22:58:40.360Z,39.15
2023-04-20T23:01:07.158Z,37.84
2023-04-20T23:03:34.709Z,39.30
2023-04-20T23:06:01.664Z,42.89
2023-04-20T23:08:28.667Z,40.97
2023-04-20T23:10:55.446Z,39.66
2023-04-20T23:13:24.649Z,39.85
2023-04-20T23:15:51.901Z,41.42
2023-04-20T23:18:19.422Z,41.41
2023-04-20T23:20:46.204Z,40.46
2023-04-20T23:23:13.438Z,41.10
2023-04-20T23:25:40.404Z,39.85
2023-04-20T23:28:07.242Z,39.16
2023-04-20T23:30:34.551Z,38.84
2023-04-20T23:33:01.378Z,39.03
2023-04-20T23:35:28.543Z,41.31
2023-04-20T23:37:55.624Z,41.13
2023-04-20T23:40:22.439Z,41.96
2023-04-20T23:42:49.666Z,39.38
2023-04-20T23:45:16.461Z,39.21
2023-04-20T23:47:43.739Z,42.68
2023-04-20T23:50:10.805Z,43.37
2023-04-20T23:52:37.636Z,42.36
2023-04-20T23:55:05.892Z,40.48
2023-04-20T23:57:33.224Z,37.82
